sensor_id;sensor_type;location;lat;lon;timestamp;temperature;humidity
18297;DHT22;18066;52.106;5.534;2022-07-29T00:00:18;17.50;99.90
18297;DHT22;18066;52.106;5.534;2022-07-29T00:02:45;17.40;99.90
18297;DHT22;18066;52.106;5.534;2022-07-29T00:05:13;17.40;99.90
18297;DHT22;18066;52.106;5.534;2022-07-29T00:07:39;17.40;99.90
18297;DHT22;18066;52.106;5.534;2022-07-29T00:10:07;17.40;99.90
18297;DHT22;18066;52.106;5.534;2022-07-29T00:12:34;17.30;99.90
18297;DHT22;18066;52.106;5.534;2022-07-29T00:15:01;17.30;99.90
18297;DHT22;18066;52.106;5.534;2022-07-29T00:17:28;17.30;99.90
18297;DHT22;18066;52.106;5.534;2022-07-29T00:19:54;17.30;99.90
18297;DHT22;18066;52.106;5.534;2022-07-29T00:22:22;17.30;99.90
18297;DHT22;18066;52.106;5.534;2022-07-29T00:24:49;17.30;99.90
18297;DHT22;18066;52.106;5.534;2022-07-29T00:27:16;17.30;99.90
18297;DHT22;18066;52.106;5.534;2022-07-29T00:29:43;17.30;99.90
18297;DHT22;18066;52.106;5.534;2022-07-29T00:32:10;17.30;99.90
18297;DHT22;18066;52.106;5.534;2022-07-29T00:34:36;17.20;99.90
18297;DHT22;18066;52.106;5.534;2022-07-29T00:37:22;17.20;99.90
18297;DHT22;18066;52.106;5.534;2022-07-29T00:39:49;17.20;99.90
18297;DHT22;18066;52.106;5.534;2022-07-29T00:42:15;17.20;99.90
18297;DHT22;18066;52.106;5.534;2022-07-29T00:44:43;17.10;99.90
18297;DHT22;18066;52.106;5.534;2022-07-29T00:47:10;17.10;99.90
18297;DHT22;18066;52.106;5.534;2022-07-29T00:49:38;17.10;99.90
18297;DHT22;18066;52.106;5.534;2022-07-29T00:52:07;17.00;99.90
18297;DHT22;18066;52.106;5.534;2022-07-29T00:54:36;17.00;99.90
18297;DHT22;18066;52.106;5.534;2022-07-29T00:57:06;17.00;99.90
18297;DHT22;18066;52.106;5.534;2022-07-29T00:59:33;17.00;99.90
18297;DHT22;18066;52.106;5.534;2022-07-29T01:02:00;17.00;99.90
18297;DHT22;18066;52.106;5.534;2022-07-29T01:04:27;16.90;99.90
18297;DHT22;18066;52.106;5.534;2022-07-29T01:06:55;17.00;99.90
18297;DHT22;18066;52.106;5.534;2022-07-29T01:09:22;17.00;99.90
18297;DHT22;18066;52.106;5.534;2022-07-29T01:11:51;16.90;99.90
18297;DHT22;18066;52.106;5.534;2022-07-29T01:14:19;16.90;99.90
18297;DHT22;18066;52.106;5.534;2022-07-29T01:16:51;16.90;99.90
18297;DHT22;18066;52.106;5.534;2022-07-29T01:19:47;16.90;99.90
18297;DHT22;18066;52.106;5.534;2022-07-29T01:22:27;16.90;99.90
18297;DHT22;18066;52.106;5.534;2022-07-29T01:25:09;16.80;99.90
18297;DHT22;18066;52.106;5.534;2022-07-29T01:27:48;16.70;99.90
18297;DHT22;18066;52.106;5.534;2022-07-29T01:30:20;16.80;99.90
18297;DHT22;18066;52.106;5.534;2022-07-29T01:32:50;16.80;99.90
18297;DHT22;18066;52.106;5.534;2022-07-29T01:35:24;16.80;99.90
18297;DHT22;18066;52.106;5.534;2022-07-29T01:37:57;16.70;99.90
18297;DHT22;18066;52.106;5.534;2022-07-29T01:40:27;16.70;99.90
18297;DHT22;18066;52.106;5.534;2022-07-29T01:42:57;16.70;99.90
18297;DHT22;18066;52.106;5.534;2022-07-29T01:45:34;16.60;99.90
18297;DHT22;18066;52.106;5.534;2022-07-29T01:48:10;16.60;99.90
18297;DHT22;18066;52.106;5.534;2022-07-29T01:50:44;16.60;99.90
18297;DHT22;18066;52.106;5.534;2022-07-29T01:53:12;16.70;99.90
18297;DHT22;18066;52.106;5.534;2022-07-29T01:55:44;16.70;99.90
18297;DHT22;18066;52.106;5.534;2022-07-29T01:58:12;16.60;99.90
18297;DHT22;18066;52.106;5.534;2022-07-29T02:00:42;16.60;99.90
18297;DHT22;18066;52.106;5.534;2022-07-29T02:03:12;16.70;99.90
18297;DHT22;18066;52.106;5.534;2022-07-29T02:05:42;16.70;99.90
18297;DHT22;18066;52.106;5.534;2022-07-29T02:08:10;16.70;99.90
18297;DHT22;18066;52.106;5.534;2022-07-29T02:10:39;16.70;99.90
18297;DHT22;18066;52.106;5.534;2022-07-29T02:13:06;16.80;99.90
18297;DHT22;18066;52.106;5.534;2022-07-29T02:15:34;16.80;99.90
18297;DHT22;18066;52.106;5.534;2022-07-29T02:18:06;16.90;99.90
18297;DHT22;18066;52.106;5.534;2022-07-29T02:20:34;16.90;99.90
18297;DHT22;18066;52.106;5.534;2022-07-29T02:23:02;16.90;99.90
18297;DHT22;18066;52.106;5.534;2022-07-29T02:25:30;16.90;99.90
18297;DHT22;18066;52.106;5.534;2022-07-29T02:27:59;16.80;99.90
18297;DHT22;18066;52.106;5.534;2022-07-29T02:30:27;16.70;99.90
18297;DHT22;18066;52.106;5.534;2022-07-29T02:32:55;16.70;99.90
18297;DHT22;18066;52.106;5.534;2022-07-29T02:35:24;16.70;99.90
18297;DHT22;18066;52.106;5.534;2022-07-29T02:37:52;16.60;99.90
18297;DHT22;18066;52.106;5.534;2022-07-29T02:40:34;16.70;99.90
18297;DHT22;18066;52.106;5.534;2022-07-29T02:43:04;16.70;99.90
18297;DHT22;18066;52.106;5.534;2022-07-29T02:45:32;16.60;99.90
18297;DHT22;18066;52.106;5.534;2022-07-29T02:48:05;16.60;99.90
18297;DHT22;18066;52.106;5.534;2022-07-29T02:50:36;16.70;99.90
18297;DHT22;18066;52.106;5.534;2022-07-29T02:53:08;16.70;99.90
18297;DHT22;18066;52.106;5.534;2022-07-29T02:55:40;16.70;99.90
18297;DHT22;18066;52.106;5.534;2022-07-29T02:58:15;16.70;99.90
18297;DHT22;18066;52.106;5.534;2022-07-29T03:00:46;16.70;99.90
18297;DHT22;18066;52.106;5.534;2022-07-29T03:03:16;16.70;99.90
18297;DHT22;18066;52.106;5.534;2022-07-29T03:05:44;16.70;99.90
18297;DHT22;18066;52.106;5.534;2022-07-29T03:08:12;16.60;99.90
18297;DHT22;18066;52.106;5.534;2022-07-29T03:10:44;16.60;99.90
18297;DHT22;18066;52.106;5.534;2022-07-29T03:13:12;16.70;99.90
18297;DHT22;18066;52.106;5.534;2022-07-29T03:15:39;16.70;99.90
18297;DHT22;18066;52.106;5.534;2022-07-29T03:18:09;16.70;99.90
18297;DHT22;18066;52.106;5.534;2022-07-29T03:20:37;16.70;99.90
18297;DHT22;18066;52.106;5.534;2022-07-29T03:23:05;16.60;99.90
18297;DHT22;18066;52.106;5.534;2022-07-29T03:25:32;16.60;99.90
18297;DHT22;18066;52.106;5.534;2022-07-29T03:27:59;16.60;99.90
18297;DHT22;18066;52.106;5.534;2022-07-29T03:30:26;16.50;99.90
18297;DHT22;18066;52.106;5.534;2022-07-29T03:32:54;16.50;99.90
18297;DHT22;18066;52.106;5.534;2022-07-29T03:35:20;16.50;99.90
18297;DHT22;18066;52.106;5.534;2022-07-29T03:37:48;16.50;99.90
18297;DHT22;18066;52.106;5.534;2022-07-29T03:40:19;16.50;99.90
18297;DHT22;18066;52.106;5.534;2022-07-29T03:42:50;16.50;99.90
18297;DHT22;18066;52.106;5.534;2022-07-29T03:45:19;16.60;99.90
18297;DHT22;18066;52.106;5.534;2022-07-29T03:47:50;16.50;99.90
18297;DHT22;18066;52.106;5.534;2022-07-29T03:50:18;16.40;99.90
18297;DHT22;18066;52.106;5.534;2022-07-29T03:52:47;16.40;99.90
18297;DHT22;18066;52.106;5.534;2022-07-29T03:55:15;16.40;99.90
18297;DHT22;18066;52.106;5.534;2022-07-29T03:57:42;16.40;99.90
18297;DHT22;18066;52.106;5.534;2022-07-29T04:00:10;16.30;99.90
18297;DHT22;18066;52.106;5.534;2022-07-29T04:02:38;16.40;99.90
18297;DHT22;18066;52.106;5.534;2022-07-29T04:05:11;16.40;99.90
18297;DHT22;18066;52.106;5.534;2022-07-29T04:07:38;16.40;99.90
18297;DHT22;18066;52.106;5.534;2022-07-29T04:10:06;16.40;99.90
18297;DHT22;18066;52.106;5.534;2022-07-29T04:12:35;16.40;99.90
18297;DHT22;18066;52.106;5.534;2022-07-29T04:15:02;16.40;99.90
18297;DHT22;18066;52.106;5.534;2022-07-29T04:17:29;16.30;99.90
18297;DHT22;18066;52.106;5.534;2022-07-29T04:19:55;16.30;99.90
18297;DHT22;18066;52.106;5.534;2022-07-29T04:22:22;16.30;99.90
18297;DHT22;18066;52.106;5.534;2022-07-29T04:24:49;16.40;99.90
18297;DHT22;18066;52.106;5.534;2022-07-29T04:27:15;16.40;99.90
18297;DHT22;18066;52.106;5.534;2022-07-29T04:29:43;16.40;99.90
18297;DHT22;18066;52.106;5.534;2022-07-29T04:32:10;16.50;99.90
18297;DHT22;18066;52.106;5.534;2022-07-29T04:34:37;16.70;99.90
18297;DHT22;18066;52.106;5.534;2022-07-29T04:37:04;16.70;99.90
18297;DHT22;18066;52.106;5.534;2022-07-29T04:39:30;16.70;99.90
18297;DHT22;18066;52.106;5.534;2022-07-29T04:41:57;16.70;99.90
18297;DHT22;18066;52.106;5.534;2022-07-29T04:44:24;16.70;99.90
18297;DHT22;18066;52.106;5.534;2022-07-29T04:46:52;16.70;99.90
18297;DHT22;18066;52.106;5.534;2022-07-29T04:49:18;16.70;99.90
18297;DHT22;18066;52.106;5.534;2022-07-29T04:51:45;16.60;99.90
18297;DHT22;18066;52.106;5.534;2022-07-29T04:54:12;16.50;99.90
18297;DHT22;18066;52.106;5.534;2022-07-29T04:56:38;16.40;99.90
18297;DHT22;18066;52.106;5.534;2022-07-29T04:59:06;16.30;99.90
18297;DHT22;18066;52.106;5.534;2022-07-29T05:01:32;16.30;99.90
18297;DHT22;18066;52.106;5.534;2022-07-29T05:04:00;16.30;99.90
18297;DHT22;18066;52.106;5.534;2022-07-29T05:06:27;16.30;99.90
18297;DHT22;18066;52.106;5.534;2022-07-29T05:08:54;16.30;99.90
18297;DHT22;18066;52.106;5.534;2022-07-29T05:11:21;16.30;99.90
18297;DHT22;18066;52.106;5.534;2022-07-29T05:13:47;16.30;99.90
18297;DHT22;18066;52.106;5.534;2022-07-29T05:16:14;16.40;99.90
18297;DHT22;18066;52.106;5.534;2022-07-29T05:18:41;16.40;99.90
18297;DHT22;18066;52.106;5.534;2022-07-29T05:21:09;16.50;99.90
18297;DHT22;18066;52.106;5.534;2022-07-29T05:23:36;16.50;99.90
18297;DHT22;18066;52.106;5.534;2022-07-29T05:26:02;16.50;99.90
18297;DHT22;18066;52.106;5.534;2022-07-29T05:28:33;16.60;99.90
18297;DHT22;18066;52.106;5.534;2022-07-29T05:30:59;16.70;99.90
18297;DHT22;18066;52.106;5.534;2022-07-29T05:33:26;16.80;99.90
18297;DHT22;18066;52.106;5.534;2022-07-29T05:35:53;16.90;99.90
18297;DHT22;18066;52.106;5.534;2022-07-29T05:38:21;16.90;99.90
18297;DHT22;18066;52.106;5.534;2022-07-29T05:40:47;16.90;99.90
18297;DHT22;18066;52.106;5.534;2022-07-29T05:43:14;17.00;99.90
18297;DHT22;18066;52.106;5.534;2022-07-29T05:45:41;17.00;99.90
18297;DHT22;18066;52.106;5.534;2022-07-29T05:48:07;17.10;99.90
18297;DHT22;18066;52.106;5.534;2022-07-29T05:50:34;17.00;99.90
18297;DHT22;18066;52.106;5.534;2022-07-29T05:53:01;17.10;99.90
18297;DHT22;18066;52.106;5.534;2022-07-29T05:55:29;17.10;99.90
18297;DHT22;18066;52.106;5.534;2022-07-29T05:57:56;17.10;99.90
18297;DHT22;18066;52.106;5.534;2022-07-29T06:00:23;17.30;99.90
18297;DHT22;18066;52.106;5.534;2022-07-29T06:02:49;17.30;99.90
18297;DHT22;18066;52.106;5.534;2022-07-29T06:05:16;17.40;99.90
18297;DHT22;18066;52.106;5.534;2022-07-29T06:07:43;17.40;99.90
18297;DHT22;18066;52.106;5.534;2022-07-29T06:10:10;17.30;99.90
18297;DHT22;18066;52.106;5.534;2022-07-29T06:12:38;17.40;99.90
18297;DHT22;18066;52.106;5.534;2022-07-29T06:15:05;17.50;99.90
18297;DHT22;18066;52.106;5.534;2022-07-29T06:17:32;17.70;99.90
18297;DHT22;18066;52.106;5.534;2022-07-29T06:19:59;17.80;99.90
18297;DHT22;18066;52.106;5.534;2022-07-29T06:22:26;17.90;99.90
18297;DHT22;18066;52.106;5.534;2022-07-29T06:24:52;17.80;99.90
18297;DHT22;18066;52.106;5.534;2022-07-29T06:27:19;17.90;99.90
18297;DHT22;18066;52.106;5.534;2022-07-29T06:29:47;18.00;99.90
18297;DHT22;18066;52.106;5.534;2022-07-29T06:32:14;18.00;99.90
18297;DHT22;18066;52.106;5.534;2022-07-29T06:34:41;17.90;99.90
18297;DHT22;18066;52.106;5.534;2022-07-29T06:37:08;17.80;99.90
18297;DHT22;18066;52.106;5.534;2022-07-29T06:39:35;17.70;99.90
18297;DHT22;18066;52.106;5.534;2022-07-29T06:42:03;17.70;99.90
18297;DHT22;18066;52.106;5.534;2022-07-29T06:44:31;17.70;99.90
18297;DHT22;18066;52.106;5.534;2022-07-29T06:47:00;17.60;99.90
18297;DHT22;18066;52.106;5.534;2022-07-29T06:49:27;17.70;99.90
18297;DHT22;18066;52.106;5.534;2022-07-29T06:51:54;17.60;99.90
18297;DHT22;18066;52.106;5.534;2022-07-29T06:54:20;17.50;99.90
18297;DHT22;18066;52.106;5.534;2022-07-29T06:56:48;17.60;99.90
18297;DHT22;18066;52.106;5.534;2022-07-29T06:59:14;17.70;99.90
18297;DHT22;18066;52.106;5.534;2022-07-29T07:01:42;17.90;99.90
18297;DHT22;18066;52.106;5.534;2022-07-29T07:04:11;18.10;99.90
18297;DHT22;18066;52.106;5.534;2022-07-29T07:06:38;18.30;99.90
18297;DHT22;18066;52.106;5.534;2022-07-29T07:09:05;18.50;99.90
18297;DHT22;18066;52.106;5.534;2022-07-29T07:11:32;18.60;99.90
18297;DHT22;18066;52.106;5.534;2022-07-29T07:13:59;18.80;99.90
18297;DHT22;18066;52.106;5.534;2022-07-29T07:16:26;18.90;99.90
18297;DHT22;18066;52.106;5.534;2022-07-29T07:18:53;18.90;99.90
18297;DHT22;18066;52.106;5.534;2022-07-29T07:21:21;18.90;99.90
18297;DHT22;18066;52.106;5.534;2022-07-29T07:23:47;18.90;99.90
18297;DHT22;18066;52.106;5.534;2022-07-29T07:26:14;18.90;99.90
18297;DHT22;18066;52.106;5.534;2022-07-29T07:28:41;19.10;99.90
18297;DHT22;18066;52.106;5.534;2022-07-29T07:31:07;19.30;99.90
18297;DHT22;18066;52.106;5.534;2022-07-29T07:33:35;19.40;99.90
18297;DHT22;18066;52.106;5.534;2022-07-29T07:36:02;19.30;99.90
18297;DHT22;18066;52.106;5.534;2022-07-29T07:38:30;19.30;99.90
18297;DHT22;18066;52.106;5.534;2022-07-29T07:40:57;19.20;99.90
18297;DHT22;18066;52.106;5.534;2022-07-29T07:43:23;19.10;99.90
18297;DHT22;18066;52.106;5.534;2022-07-29T07:45:50;19.30;99.90
18297;DHT22;18066;52.106;5.534;2022-07-29T07:48:17;19.40;99.90
18297;DHT22;18066;52.106;5.534;2022-07-29T07:50:43;19.60;99.90
18297;DHT22;18066;52.106;5.534;2022-07-29T07:53:10;19.90;99.90
18297;DHT22;18066;52.106;5.534;2022-07-29T07:55:41;20.10;99.90
18297;DHT22;18066;52.106;5.534;2022-07-29T07:58:08;20.20;99.90
18297;DHT22;18066;52.106;5.534;2022-07-29T08:00:35;20.40;99.90
18297;DHT22;18066;52.106;5.534;2022-07-29T08:03:02;20.50;99.90
18297;DHT22;18066;52.106;5.534;2022-07-29T08:05:29;20.60;99.90
18297;DHT22;18066;52.106;5.534;2022-07-29T08:07:56;20.70;99.90
18297;DHT22;18066;52.106;5.534;2022-07-29T08:10:23;20.70;99.90
18297;DHT22;18066;52.106;5.534;2022-07-29T08:13:09;20.90;99.90
18297;DHT22;18066;52.106;5.534;2022-07-29T08:15:39;21.10;99.90
18297;DHT22;18066;52.106;5.534;2022-07-29T08:18:06;21.30;99.90
18297;DHT22;18066;52.106;5.534;2022-07-29T08:20:33;21.50;99.90
18297;DHT22;18066;52.106;5.534;2022-07-29T08:23:00;21.70;99.90
18297;DHT22;18066;52.106;5.534;2022-07-29T08:25:27;21.70;99.90
18297;DHT22;18066;52.106;5.534;2022-07-29T08:27:54;21.80;99.90
18297;DHT22;18066;52.106;5.534;2022-07-29T08:30:22;21.80;99.90
18297;DHT22;18066;52.106;5.534;2022-07-29T08:32:49;21.80;99.90
18297;DHT22;18066;52.106;5.534;2022-07-29T08:35:18;21.70;99.90
18297;DHT22;18066;52.106;5.534;2022-07-29T08:37:45;21.90;99.90
18297;DHT22;18066;52.106;5.534;2022-07-29T08:40:12;22.00;99.90
18297;DHT22;18066;52.106;5.534;2022-07-29T08:42:39;22.00;99.90
18297;DHT22;18066;52.106;5.534;2022-07-29T08:45:07;22.20;99.90
18297;DHT22;18066;52.106;5.534;2022-07-29T08:47:35;22.30;99.90
18297;DHT22;18066;52.106;5.534;2022-07-29T08:50:05;22.50;99.90
18297;DHT22;18066;52.106;5.534;2022-07-29T08:52:36;22.60;99.90
18297;DHT22;18066;52.106;5.534;2022-07-29T08:55:04;22.50;99.90
18297;DHT22;18066;52.106;5.534;2022-07-29T08:57:30;22.40;99.90
18297;DHT22;18066;52.106;5.534;2022-07-29T09:00:00;22.30;99.90
18297;DHT22;18066;52.106;5.534;2022-07-29T09:02:29;22.20;99.90
18297;DHT22;18066;52.106;5.534;2022-07-29T09:05:00;22.00;99.90
18297;DHT22;18066;52.106;5.534;2022-07-29T09:07:28;21.80;99.90
18297;DHT22;18066;52.106;5.534;2022-07-29T09:09:54;21.60;99.90
18297;DHT22;18066;52.106;5.534;2022-07-29T09:12:21;21.60;99.90
18297;DHT22;18066;52.106;5.534;2022-07-29T09:14:50;21.70;99.90
18297;DHT22;18066;52.106;5.534;2022-07-29T09:17:17;21.90;99.90
18297;DHT22;18066;52.106;5.534;2022-07-29T09:19:45;22.20;99.90
18297;DHT22;18066;52.106;5.534;2022-07-29T09:22:28;22.40;99.90
18297;DHT22;18066;52.106;5.534;2022-07-29T09:24:55;22.60;99.90
18297;DHT22;18066;52.106;5.534;2022-07-29T09:27:23;22.70;99.90
18297;DHT22;18066;52.106;5.534;2022-07-29T09:29:59;22.70;99.90
18297;DHT22;18066;52.106;5.534;2022-07-29T09:32:26;22.80;99.90
18297;DHT22;18066;52.106;5.534;2022-07-29T09:35:14;22.90;99.90
18297;DHT22;18066;52.106;5.534;2022-07-29T09:37:43;22.90;99.90
18297;DHT22;18066;52.106;5.534;2022-07-29T09:40:14;22.90;99.90
18297;DHT22;18066;52.106;5.534;2022-07-29T09:42:41;22.80;99.90
18297;DHT22;18066;52.106;5.534;2022-07-29T09:45:09;22.80;99.90
18297;DHT22;18066;52.106;5.534;2022-07-29T09:47:44;22.70;99.90
18297;DHT22;18066;52.106;5.534;2022-07-29T09:50:12;22.60;99.90
18297;DHT22;18066;52.106;5.534;2022-07-29T09:52:47;22.70;99.90
18297;DHT22;18066;52.106;5.534;2022-07-29T09:55:14;22.60;99.90
18297;DHT22;18066;52.106;5.534;2022-07-29T09:57:41;22.70;99.90
18297;DHT22;18066;52.106;5.534;2022-07-29T10:00:09;22.80;99.90
18297;DHT22;18066;52.106;5.534;2022-07-29T10:02:37;22.90;99.90
18297;DHT22;18066;52.106;5.534;2022-07-29T10:05:16;23.00;99.90
18297;DHT22;18066;52.106;5.534;2022-07-29T10:07:46;23.10;99.90
18297;DHT22;18066;52.106;5.534;2022-07-29T10:10:19;23.20;99.90
18297;DHT22;18066;52.106;5.534;2022-07-29T10:12:52;23.30;99.90
18297;DHT22;18066;52.106;5.534;2022-07-29T10:15:19;23.40;99.90
18297;DHT22;18066;52.106;5.534;2022-07-29T10:17:47;23.50;99.90
18297;DHT22;18066;52.106;5.534;2022-07-29T10:20:15;23.60;99.90
18297;DHT22;18066;52.106;5.534;2022-07-29T10:22:42;23.80;99.90
18297;DHT22;18066;52.106;5.534;2022-07-29T10:25:11;23.70;99.90
18297;DHT22;18066;52.106;5.534;2022-07-29T10:27:37;23.80;99.90
18297;DHT22;18066;52.106;5.534;2022-07-29T10:30:05;24.10;99.90
18297;DHT22;18066;52.106;5.534;2022-07-29T10:32:41;24.40;99.90
18297;DHT22;18066;52.106;5.534;2022-07-29T10:35:21;24.40;99.90
18297;DHT22;18066;52.106;5.534;2022-07-29T10:38:17;24.40;99.90
18297;DHT22;18066;52.106;5.534;2022-07-29T10:40:57;24.40;99.90
18297;DHT22;18066;52.106;5.534;2022-07-29T10:43:51;24.40;99.90
18297;DHT22;18066;52.106;5.534;2022-07-29T10:46:18;24.60;99.90
18297;DHT22;18066;52.106;5.534;2022-07-29T10:49:10;24.50;99.90
18297;DHT22;18066;52.106;5.534;2022-07-29T10:52:01;24.70;99.90
18297;DHT22;18066;52.106;5.534;2022-07-29T10:54:45;24.70;99.90
18297;DHT22;18066;52.106;5.534;2022-07-29T10:57:29;24.70;99.90
18297;DHT22;18066;52.106;5.534;2022-07-29T11:00:31;24.50;99.90
18297;DHT22;18066;52.106;5.534;2022-07-29T11:02:58;24.50;99.90
18297;DHT22;18066;52.106;5.534;2022-07-29T11:05:26;24.70;99.90
18297;DHT22;18066;52.106;5.534;2022-07-29T11:08:17;24.70;99.90
18297;DHT22;18066;52.106;5.534;2022-07-29T11:10:45;24.70;99.90
18297;DHT22;18066;52.106;5.534;2022-07-29T11:13:46;24.80;99.90
18297;DHT22;18066;52.106;5.534;2022-07-29T11:16:14;24.90;99.90
18297;DHT22;18066;52.106;5.534;2022-07-29T11:19:23;24.90;99.90
18297;DHT22;18066;52.106;5.534;2022-07-29T11:21:50;25.00;99.90
18297;DHT22;18066;52.106;5.534;2022-07-29T11:24:20;24.90;99.90
18297;DHT22;18066;52.106;5.534;2022-07-29T11:27:10;24.90;99.90
18297;DHT22;18066;52.106;5.534;2022-07-29T11:29:47;24.90;99.90
18297;DHT22;18066;52.106;5.534;2022-07-29T11:32:16;24.80;99.90
18297;DHT22;18066;52.106;5.534;2022-07-29T11:34:45;24.80;99.90
18297;DHT22;18066;52.106;5.534;2022-07-29T11:37:22;24.90;99.90
18297;DHT22;18066;52.106;5.534;2022-07-29T11:40:11;25.10;99.90
18297;DHT22;18066;52.106;5.534;2022-07-29T11:42:40;25.20;99.90
18297;DHT22;18066;52.106;5.534;2022-07-29T11:45:10;25.10;99.90
18297;DHT22;18066;52.106;5.534;2022-07-29T11:47:40;25.00;99.90
18297;DHT22;18066;52.106;5.534;2022-07-29T11:50:10;24.80;99.90
18297;DHT22;18066;52.106;5.534;2022-07-29T11:52:39;24.60;99.90
18297;DHT22;18066;52.106;5.534;2022-07-29T11:55:12;24.40;99.90
18297;DHT22;18066;52.106;5.534;2022-07-29T11:57:46;24.40;99.90
18297;DHT22;18066;52.106;5.534;2022-07-29T12:00:22;24.40;99.90
18297;DHT22;18066;52.106;5.534;2022-07-29T12:02:48;24.50;99.90
18297;DHT22;18066;52.106;5.534;2022-07-29T12:05:16;24.70;99.90
18297;DHT22;18066;52.106;5.534;2022-07-29T12:07:43;24.90;99.90
18297;DHT22;18066;52.106;5.534;2022-07-29T12:10:10;24.70;99.90
18297;DHT22;18066;52.106;5.534;2022-07-29T12:12:37;24.70;99.90
18297;DHT22;18066;52.106;5.534;2022-07-29T12:15:17;24.70;99.90
18297;DHT22;18066;52.106;5.534;2022-07-29T12:17:46;24.70;99.90
18297;DHT22;18066;52.106;5.534;2022-07-29T12:20:13;24.80;99.90
18297;DHT22;18066;52.106;5.534;2022-07-29T12:22:42;25.00;99.90
18297;DHT22;18066;52.106;5.534;2022-07-29T12:25:11;24.80;99.90
18297;DHT22;18066;52.106;5.534;2022-07-29T12:27:41;24.70;99.90
18297;DHT22;18066;52.106;5.534;2022-07-29T12:30:10;24.70;99.90
18297;DHT22;18066;52.106;5.534;2022-07-29T12:32:41;25.00;99.90
18297;DHT22;18066;52.106;5.534;2022-07-29T12:35:09;25.20;99.90
18297;DHT22;18066;52.106;5.534;2022-07-29T12:37:38;25.40;99.90
18297;DHT22;18066;52.106;5.534;2022-07-29T12:40:07;25.60;99.90
18297;DHT22;18066;52.106;5.534;2022-07-29T12:42:35;25.70;99.90
18297;DHT22;18066;52.106;5.534;2022-07-29T12:45:03;25.70;99.90
18297;DHT22;18066;52.106;5.534;2022-07-29T12:47:31;25.80;99.90
18297;DHT22;18066;52.106;5.534;2022-07-29T12:50:10;25.80;99.90
18297;DHT22;18066;52.106;5.534;2022-07-29T12:52:40;25.70;99.90
18297;DHT22;18066;52.106;5.534;2022-07-29T12:55:07;25.70;99.90
18297;DHT22;18066;52.106;5.534;2022-07-29T12:57:45;25.80;99.90
18297;DHT22;18066;52.106;5.534;2022-07-29T13:00:14;25.90;99.90
18297;DHT22;18066;52.106;5.534;2022-07-29T13:02:42;26.00;99.90
18297;DHT22;18066;52.106;5.534;2022-07-29T13:05:11;26.00;99.90
18297;DHT22;18066;52.106;5.534;2022-07-29T13:07:38;25.90;99.90
18297;DHT22;18066;52.106;5.534;2022-07-29T13:10:13;25.90;99.90
18297;DHT22;18066;52.106;5.534;2022-07-29T13:13:02;25.80;99.90
18297;DHT22;18066;52.106;5.534;2022-07-29T13:15:30;26.00;99.90
18297;DHT22;18066;52.106;5.534;2022-07-29T13:17:57;26.10;99.90
18297;DHT22;18066;52.106;5.534;2022-07-29T13:20:26;26.20;99.90
18297;DHT22;18066;52.106;5.534;2022-07-29T13:22:55;26.20;99.90
18297;DHT22;18066;52.106;5.534;2022-07-29T13:25:25;26.30;99.90
18297;DHT22;18066;52.106;5.534;2022-07-29T13:27:53;26.40;99.90
18297;DHT22;18066;52.106;5.534;2022-07-29T13:30:21;26.60;99.90
18297;DHT22;18066;52.106;5.534;2022-07-29T13:32:49;26.80;99.90
18297;DHT22;18066;52.106;5.534;2022-07-29T13:35:16;26.90;99.90
18297;DHT22;18066;52.106;5.534;2022-07-29T13:37:44;26.90;99.90
18297;DHT22;18066;52.106;5.534;2022-07-29T13:40:12;26.90;99.90
18297;DHT22;18066;52.106;5.534;2022-07-29T13:42:39;26.80;99.90
18297;DHT22;18066;52.106;5.534;2022-07-29T13:45:07;26.90;99.90
18297;DHT22;18066;52.106;5.534;2022-07-29T13:47:34;26.80;99.90
18297;DHT22;18066;52.106;5.534;2022-07-29T13:50:01;26.80;99.90
18297;DHT22;18066;52.106;5.534;2022-07-29T13:52:28;26.40;99.90
18297;DHT22;18066;52.106;5.534;2022-07-29T13:54:57;26.30;99.90
18297;DHT22;18066;52.106;5.534;2022-07-29T13:57:24;26.30;99.90
18297;DHT22;18066;52.106;5.534;2022-07-29T13:59:50;26.40;99.90
18297;DHT22;18066;52.106;5.534;2022-07-29T14:02:17;26.60;99.90
18297;DHT22;18066;52.106;5.534;2022-07-29T14:04:44;26.70;99.90
18297;DHT22;18066;52.106;5.534;2022-07-29T14:07:10;26.80;99.90
18297;DHT22;18066;52.106;5.534;2022-07-29T14:09:37;27.10;99.90
18297;DHT22;18066;52.106;5.534;2022-07-29T14:12:06;27.10;99.90
18297;DHT22;18066;52.106;5.534;2022-07-29T14:14:33;27.40;99.90
18297;DHT22;18066;52.106;5.534;2022-07-29T14:17:02;28.00;99.90
18297;DHT22;18066;52.106;5.534;2022-07-29T14:19:31;28.50;99.90
18297;DHT22;18066;52.106;5.534;2022-07-29T14:22:01;28.50;99.90
18297;DHT22;18066;52.106;5.534;2022-07-29T14:24:28;28.50;99.90
18297;DHT22;18066;52.106;5.534;2022-07-29T14:26:55;28.50;99.90
18297;DHT22;18066;52.106;5.534;2022-07-29T14:29:23;28.40;99.90
18297;DHT22;18066;52.106;5.534;2022-07-29T14:31:49;28.40;99.90
18297;DHT22;18066;52.106;5.534;2022-07-29T14:34:16;28.50;99.90
18297;DHT22;18066;52.106;5.534;2022-07-29T14:36:43;29.10;99.90
18297;DHT22;18066;52.106;5.534;2022-07-29T14:39:10;30.10;99.90
18297;DHT22;18066;52.106;5.534;2022-07-29T14:41:37;30.60;99.90
18297;DHT22;18066;52.106;5.534;2022-07-29T14:44:04;30.90;99.90
18297;DHT22;18066;52.106;5.534;2022-07-29T14:46:32;31.60;99.90
18297;DHT22;18066;52.106;5.534;2022-07-29T14:49:00;32.50;99.90
18297;DHT22;18066;52.106;5.534;2022-07-29T14:51:27;33.40;99.90
18297;DHT22;18066;52.106;5.534;2022-07-29T14:53:54;33.70;99.90
18297;DHT22;18066;52.106;5.534;2022-07-29T14:56:21;33.70;99.40
18297;DHT22;18066;52.106;5.534;2022-07-29T14:58:48;34.10;99.90
18297;DHT22;18066;52.106;5.534;2022-07-29T15:01:15;35.00;98.60
18297;DHT22;18066;52.106;5.534;2022-07-29T15:03:43;35.40;98.00
18297;DHT22;18066;52.106;5.534;2022-07-29T15:06:09;35.50;97.10
18297;DHT22;18066;52.106;5.534;2022-07-29T15:08:36;35.80;96.90
18297;DHT22;18066;52.106;5.534;2022-07-29T15:11:03;36.10;95.50
18297;DHT22;18066;52.106;5.534;2022-07-29T15:13:30;36.70;95.40
18297;DHT22;18066;52.106;5.534;2022-07-29T15:15:56;37.30;94.00
18297;DHT22;18066;52.106;5.534;2022-07-29T15:18:23;37.50;93.30
18297;DHT22;18066;52.106;5.534;2022-07-29T15:20:51;38.00;91.10
18297;DHT22;18066;52.106;5.534;2022-07-29T15:23:18;37.90;90.80
18297;DHT22;18066;52.106;5.534;2022-07-29T15:25:44;38.50;91.70
18297;DHT22;18066;52.106;5.534;2022-07-29T15:28:11;39.00;91.20
18297;DHT22;18066;52.106;5.534;2022-07-29T15:30:38;39.70;88.90
18297;DHT22;18066;52.106;5.534;2022-07-29T15:33:07;39.50;86.90
18297;DHT22;18066;52.106;5.534;2022-07-29T15:35:34;39.60;85.70
18297;DHT22;18066;52.106;5.534;2022-07-29T15:38:04;39.20;89.00
18297;DHT22;18066;52.106;5.534;2022-07-29T15:40:30;39.60;86.00
18297;DHT22;18066;52.106;5.534;2022-07-29T15:42:57;39.20;84.50